x

Galveston,tx - 22 Nm East Of Galveston, Tx (42035) Wave Buoy

3:50am - Tue 5th May 2015 All times are CDT. -5 hours from GMT.

  • Sig Wave height 2.6ft
  • Swell Direction
  • Peak Period 3s
  • Average Period 4s
  • Wind
    18mph, 20mph gusts
  • Sea Temp 75°f
  • Air Temp 75°f
  • Sea Pressure 1015.6mb
  • Galveston,tx -  22 Nm East Of Galveston, Tx
  • Galveston,tx -  22 Nm East Of Galveston, Tx

More Historic Weather Station data

Upgrade to MSW Pro to gain access to the past 30 days of data for over 8000 Wavebouys and Weather Stations around the globe.

Join Pro

Comparision Forecast

View Surf forecast
   
Tue 05/05 3:50am 2.5ft 3s 4s 18 20 mph 1015.6mb 75f 75f
2:50am 2.5ft 5s 4s 16 20 mph 1015.7mb 75f 75f
1:50am 2.5ft 5s 4s 16 20 mph 1016.5mb 75f 74f
12:50am 2.5ft 4s 4s 16 18 mph 1017mb 75f 74f
Mon 05/04 11:50pm 2.5ft 3s 4s 16 18 mph 1017.4mb 75f 75f
10:50pm 2.5ft 4s 4s 16 18 mph 1017.7mb 75f 75f
9:50pm 2.5ft 4s 4s 16 18 mph 1017.6mb 75f 75f
8:50pm 2.5ft 5s 4s 16 20 mph 1017.4mb 75f 75f
7:50pm 2.5ft 5s 4s 18 20 mph 1017.2mb 76f 75f
6:50pm 2.5ft 5s 4s 18
mph
1017.5mb 76f 75f
5:50pm 2.5ft 5s 4s 18 20 mph 1017.6mb 76f 75f
4:50pm 2ft 5s 3s 18 20 mph 1017.8mb 76f 75f
3:50pm 2ft 5s 4s 18 20 mph 1017.9mb 76f 76f
2:50pm 2ft 5s 4s 13 16 mph 1018.8mb 76f 75f
1:50pm 2ft 5s 4s 11 16 mph 1019.2mb 76f 75f
12:50pm 2ft 5s 4s 11 13 mph 1019.8mb 75f 75f
11:50am 2.5ft 5s 4s 9 11 mph 1020mb 75f 75f
10:50am 2.5ft 5s 4s 13 16 mph 1019.8mb 75f 75f
9:50am 2.5ft 6s 4s 13 18 mph 1019.2mb 74f 75f
8:50am 3ft 5s 4s 11 13 mph 1018.8mb 74f 75f
7:50am 3ft 5s 4s 13 16 mph 1017.8mb 74f 74f
6:50am 2.5ft 5s 4s 13 16 mph 1017.1mb 74f 74f
5:50am 3ft 5s 4s 13 18 mph 1016.5mb 74f 74f
4:50am 2.5ft 5s 4s 16 18 mph 1016mb 74f 74f
3:50am 2.5ft 4s 4s 18 20 mph 1016.3mb 74f 74f
2:50am 2.5ft 5s 4s 18 20 mph 1016.7mb 75f 74f
1:50am 2.5ft 4s 4s 20 22 mph 1016.6mb 75f 75f
12:50am 2.5ft 5s 3s 20 22 mph 1016.6mb 75f 75f
Sun 05/03 11:50pm 2.5ft 4s 4s 20 22 mph 1017mb 75f 75f
10:50pm 2.5ft 4s 3s 18 20 mph 1017.3mb 75f 75f
9:50pm 2.5ft 4s 3s 18 20 mph 1017.1mb 75f 75f
8:50pm 2ft 4s  -  18 20 mph 1016.7mb 75f 75f
7:50pm 2ft 4s 3s 13 16 mph 1016.6mb 76f 76f
6:50pm 2ft 4s 3s 13 16 mph 1016.5mb 76f 76f
5:50pm 2ft 4s 3s 16 18 mph 1016.3mb 76f 76f
4:50pm 2ft 4s 3s 16 18 mph 1016.6mb 76f 76f
3:50pm 2ft 4s 3s 16
mph
1017.2mb 76f 75f
2:50pm 1.6ft 3s 3s 16 18 mph 1017.8mb 76f 75f
1:50pm 1.6ft 3s 3s 13 18 mph 1018.2mb 76f 75f
12:50pm 1.3ft 4s 3s 13 16 mph 1018.5mb 75f 75f
11:50am 1ft 4s 3s 13 16 mph 1018.6mb 75f 74f
10:50am 1.3ft 3s 3s 9 11 mph 1018.5mb 75f 74f
9:50am 1.3ft 4s 4s 9 11 mph 1018.2mb 74f 74f
8:50am 1.3ft 4s 3s 7 9 mph 1017.8mb 74f 74f
7:50am 1.6ft 4s 3s 7
mph
1017.1mb 74f 74f
6:50am 2ft 4s 3s 9 11 mph 1016.4mb 74f 74f
5:50am 1.6ft 4s 3s 13 16 mph 1016.1mb 74f 74f
4:50am 1.6ft 3s 3s 13 16 mph 1016.2mb 74f 74f
3:50am 1.6ft 3s 3s 13 18 mph 1016.1mb 74f 73f
2:50am 1.6ft 3s 3s 13 18 mph 1016.2mb 74f 73f
1:50am 1.3ft 3s 3s 16 20 mph 1016.1mb 74f 73f
12:50am 1ft 3s 3s 16 18 mph 1016.5mb 74f 73f
Sat 05/02 11:50pm 1ft 3s 3s 13 16 mph 1016.8mb 74f 74f
10:50pm 1ft 2s 3s 13 18 mph 1016.7mb 74f 74f
9:50pm 0.7ft  -  3s 11 16 mph 1016.8mb 74f 74f
8:50pm 0.7ft  -  3s 11 13 mph 1016.4mb 75f 75f
7:50pm 0.3ft  -  3s 9 13 mph 1016.2mb 76f 76f
6:50pm 0.3ft  -  4s 7 9 mph 1016mb 79f 76f
5:50pm 0.3ft  -  4s 4 7 mph 1016.4mb 81f 76f
4:50pm 0.7ft  -  4s 2 4 mph 1016.6mb 83f 76f
3:50pm 0.3ft  -  4s 2 4 mph 1017.3mb 82f 75f
2:50pm 0.3ft  -  4s 2
mph
1018.1mb 82f 75f
1:50pm 0.3ft  -  3s 2 4 mph 1018.8mb 80f 74f
12:50pm 0.7ft  -  3s 2 4 mph 1019.2mb 78f 73f
11:50am 0.7ft  -  3s 4 7 mph 1019.3mb 76f 73f
10:50am 0.7ft  -  3s 4 7 mph 1019.1mb 75f 72f
9:50am 0.7ft  -  3s 7 9 mph 1018.9mb 74f 72f
8:50am 0.7ft  -  3s 9
mph
1018.4mb 73f 72f
7:50am 0.7ft  -  3s 11 13 mph 1018mb 74f 72f
6:50am 1ft 3s 3s 9 11 mph 1017.5mb 74f 72f
5:50am 1ft 3s 3s 11 13 mph 1017.3mb 74f 73f
4:50am 1ft 3s 3s 11 13 mph 1017.1mb 74f 73f
3:50am 1ft 2s 3s 11 13 mph 1017mb 74f 74f
2:50am 1ft 2s 3s 11 13 mph 1016.9mb 75f 74f
1:50am 1ft 2s 3s 11 13 mph 1017.3mb 74f 74f
12:50am 1ft 2s 3s 11 13 mph 1017.7mb 74f 75f
Fri 05/01 11:50pm 0.7ft  -  3s 9 11 mph 1017.8mb 74f 75f
10:50pm 0.7ft  -  3s 9 11 mph 1017.8mb 74f 75f
9:50pm 0.7ft  -  3s 9 11 mph 1017.5mb 75f 75f
8:50pm 0.7ft  -  4s 9 11 mph 1016.7mb 76f 75f
7:50pm 0.7ft  -  4s 9
mph
1016.2mb 76f 75f
6:50pm 0.7ft  -  4s 7
mph
1015.9mb 76f 76f
5:50pm 0.7ft  -  4s 4 7 mph 1015.8mb 77f 77f
4:50pm 0.7ft  -  4s 4
mph
1015.9mb 77f 77f
3:50pm 0.7ft  -  3s 2 4 mph 1016.5mb 76f 76f
2:50pm 1ft 3s 3s 7
mph
1017.1mb 76f 75f
1:50pm 1ft 4s 3s 9
mph
1017.6mb 74f 74f
12:50pm 1ft 4s 3s 11
mph
1018mb 74f 73f
11:50am 1ft 4s 3s 11
mph
1018.3mb 74f 72f
10:50am 1.3ft 3s 3s 11 13 mph 1018.1mb 73f 71f